createdAt,value
2023-02-23T00:02:50.489Z,54.48
2023-02-23T00:07:52.697Z,54.88
2023-02-23T00:12:54.437Z,54.72
2023-02-23T00:17:57.545Z,54.47
2023-02-23T00:22:59.314Z,54.43
2023-02-23T00:28:01.047Z,54.67
2023-02-23T00:33:02.934Z,55.18
2023-02-23T00:38:04.697Z,55.03
2023-02-23T00:43:06.724Z,55.39
2023-02-23T00:48:10.892Z,54.95
2023-02-23T00:53:14.116Z,55.17
2023-02-23T00:58:17.380Z,55.14
2023-02-23T01:03:19.321Z,55.71
2023-02-23T01:08:24.607Z,55.06
2023-02-23T01:13:28.152Z,55.70
2023-02-23T01:18:29.914Z,55.31
2023-02-23T01:23:32.723Z,55.20
2023-02-23T01:28:34.605Z,55.29
2023-02-23T01:33:37.435Z,55.41
2023-02-23T01:38:40.169Z,55.56
2023-02-23T01:44:13.856Z,55.48
2023-02-23T01:49:25.650Z,55.60
2023-02-23T01:54:31.984Z,55.58
2023-02-23T01:59:39.899Z,55.32
2023-02-23T02:04:46.324Z,55.28
2023-02-23T02:10:09.712Z,55.05
2023-02-23T02:15:19.273Z,55.34
2023-02-23T02:20:34.311Z,55.27
2023-02-23T02:25:47.910Z,54.99
2023-02-23T02:31:22.154Z,55.60
2023-02-23T02:36:52.005Z,54.85
2023-02-23T02:42:10.859Z,55.43
2023-02-23T02:47:19.255Z,55.48
2023-02-23T02:52:28.795Z,55.47
2023-02-23T02:57:33.158Z,55.04
2023-02-23T03:02:57.920Z,55.17
2023-02-23T03:08:24.180Z,55.14
2023-02-23T03:14:04.010Z,54.85
2023-02-23T03:19:49.878Z,55.04
2023-02-23T03:25:23.615Z,55.32
2023-02-23T03:30:48.008Z,54.92
2023-02-23T03:36:18.651Z,55.47
2023-02-23T03:41:42.375Z,55.13
2023-02-23T03:47:05.901Z,54.93
2023-02-23T03:52:35.143Z,55.58
2023-02-23T03:57:58.923Z,54.77
2023-02-23T04:03:22.542Z,54.75
2023-02-23T04:08:49.458Z,54.84
2023-02-23T04:13:57.207Z,55.12
2023-02-23T04:18:59.080Z,55.34
2023-02-23T04:24:00.878Z,54.74
2023-02-23T04:29:02.745Z,55.18
2023-02-23T04:34:04.981Z,55.13
2023-02-23T04:39:06.732Z,55.54
2023-02-23T04:44:08.541Z,55.38
2023-02-23T04:49:10.515Z,55.46
2023-02-23T04:54:12.292Z,55.14
2023-02-23T04:59:14.080Z,55.26
2023-02-23T05:04:15.928Z,54.96
2023-02-23T05:09:17.693Z,55.09
2023-02-23T05:14:19.477Z,55.64
2023-02-23T05:19:22.060Z,55.07
2023-02-23T05:24:23.884Z,55.23
2023-02-23T05:29:25.677Z,55.56
2023-02-23T05:34:27.507Z,55.85
2023-02-23T05:39:29.288Z,55.17
2023-02-23T05:44:31.070Z,55.47
2023-02-23T05:49:32.847Z,55.65
2023-02-23T05:54:34.813Z,56.25
2023-02-23T05:59:36.606Z,55.99
2023-02-23T06:04:38.427Z,55.96
2023-02-23T06:09:42.897Z,56.15
2023-02-23T06:14:46.072Z,55.87
2023-02-23T06:19:47.827Z,56.23
2023-02-23T06:24:49.754Z,56.19
2023-02-23T06:29:51.646Z,55.82
2023-02-23T06:34:53.390Z,56.08
2023-02-23T06:39:55.175Z,56.05
2023-02-23T06:44:56.943Z,56.10
2023-02-23T06:50:00.071Z,55.41
2023-02-23T06:55:01.857Z,55.92
2023-02-23T07:00:04.870Z,56.39
2023-02-23T07:05:06.869Z,56.13
2023-02-23T07:10:09.369Z,56.33
2023-02-23T07:15:11.808Z,56.16
2023-02-23T07:20:13.750Z,56.14
2023-02-23T07:25:15.566Z,56.35
2023-02-23T07:35:38.607Z,55.71
2023-02-23T07:40:40.676Z,56.01
2023-02-23T07:45:45.507Z,56.29
2023-02-23T07:50:48.787Z,55.84
2023-02-23T07:56:04.242Z,56.36
2023-02-23T08:01:06.358Z,56.22
2023-02-23T08:06:08.234Z,56.39
2023-02-23T08:11:10.035Z,56.34
2023-02-23T08:16:12.640Z,56.33
2023-02-23T08:21:14.390Z,56.24
2023-02-23T08:26:16.297Z,56.09
2023-02-23T08:31:21.568Z,56.10
2023-02-23T08:36:23.741Z,56.33
2023-02-23T08:41:26.295Z,56.04
2023-02-23T08:46:28.155Z,56.18
2023-02-23T08:51:30.019Z,56.46
2023-02-23T08:56:31.911Z,56.20
2023-02-23T09:01:33.932Z,56.10
2023-02-23T09:06:37.262Z,56.23
2023-02-23T09:11:39.071Z,56.21
2023-02-23T09:16:40.819Z,56.00
2023-02-23T09:21:44.221Z,56.00
2023-02-23T09:26:46.064Z,55.83
2023-02-23T09:31:48.003Z,57.31
2023-02-23T09:36:49.925Z,56.49
2023-02-23T09:41:51.901Z,56.11
2023-02-23T09:47:21.349Z,55.70
2023-02-23T09:52:35.620Z,55.74
2023-02-23T09:57:40.361Z,55.71
2023-02-23T10:03:08.424Z,55.60
2023-02-23T10:08:30.341Z,55.38
2023-02-23T10:13:50.645Z,55.37
2023-02-23T10:19:13.120Z,55.10
2023-02-23T10:24:56.392Z,55.19
2023-02-23T10:30:02.905Z,54.68
2023-02-23T10:35:15.228Z,54.19
2023-02-23T10:40:28.946Z,54.32
2023-02-23T10:45:45.636Z,54.36
2023-02-23T10:50:50.041Z,53.83
2023-02-23T10:56:17.014Z,53.60
2023-02-23T11:02:00.356Z,52.99
2023-02-23T11:07:16.425Z,53.14
2023-02-23T11:12:26.399Z,52.74
2023-02-23T11:17:30.191Z,52.62
2023-02-23T11:22:36.191Z,52.02
2023-02-23T11:27:38.020Z,51.53
2023-02-23T11:32:43.310Z,50.90
2023-02-23T11:37:45.195Z,50.66
2023-02-23T11:42:54.372Z,50.43
2023-02-23T11:47:59.461Z,50.02
2023-02-23T11:53:05.962Z,49.64
2023-02-23T11:58:19.349Z,49.79
2023-02-23T12:03:24.753Z,49.57
2023-02-23T12:08:31.415Z,49.59
2023-02-23T12:13:39.839Z,49.25
2023-02-23T12:19:08.644Z,49.19
2023-02-23T12:24:32.155Z,49.28
2023-02-23T12:35:18.327Z,48.71
2023-02-23T12:40:30.484Z,48.65
2023-02-23T12:45:46.130Z,48.31
2023-02-23T12:50:54.434Z,48.08
2023-02-23T12:55:59.131Z,48.17
2023-02-23T13:01:05.189Z,47.94
2023-02-23T13:06:25.898Z,47.76
2023-02-23T13:11:46.369Z,47.67
2023-02-23T13:16:54.978Z,47.53
2023-02-23T13:22:11.773Z,47.45
2023-02-23T13:27:46.928Z,47.42
2023-02-23T13:32:49.424Z,47.52
2023-02-23T13:38:31.538Z,47.42
2023-02-23T13:43:47.463Z,47.52
2023-02-23T13:49:02.994Z,47.52
2023-02-23T13:54:14.755Z,47.57
2023-02-23T13:59:19.803Z,47.54
2023-02-23T14:04:27.766Z,47.56
2023-02-23T14:09:47.519Z,47.80
2023-02-23T14:14:49.609Z,47.57
2023-02-23T14:20:13.261Z,47.74
2023-02-23T14:25:30.232Z,47.74
2023-02-23T14:30:51.410Z,47.97
2023-02-23T14:35:54.620Z,47.84
2023-02-23T14:40:56.514Z,48.20
2023-02-23T14:46:01.326Z,48.22
2023-02-23T14:51:17.104Z,48.48
2023-02-23T14:56:21.193Z,48.73
2023-02-23T15:01:38.317Z,49.09
2023-02-23T15:06:47.061Z,49.24
2023-02-23T15:11:54.105Z,49.36
2023-02-23T15:16:56.729Z,49.24
2023-02-23T15:22:00.539Z,49.65
2023-02-23T15:27:02.283Z,50.36
2023-02-23T15:32:19.423Z,50.34
2023-02-23T15:37:34.096Z,50.63
2023-02-23T15:42:41.214Z,50.86
2023-02-23T15:47:43.234Z,50.93
2023-02-23T15:52:58.599Z,51.33
2023-02-23T15:58:02.069Z,51.89
2023-02-23T16:03:06.314Z,51.91
2023-02-23T16:08:23.144Z,51.99
2023-02-23T16:13:25.053Z,52.22
2023-02-23T16:18:36.422Z,52.51
2023-02-23T16:23:45.618Z,52.63
2023-02-23T16:28:47.425Z,52.63
2023-02-23T16:33:57.100Z,52.62
2023-02-23T16:39:00.256Z,52.83
2023-02-23T16:44:05.037Z,52.83
2023-02-23T16:49:24.294Z,52.83
2023-02-23T16:54:26.798Z,53.12
2023-02-23T16:59:30.255Z,53.22
2023-02-23T17:04:32.022Z,53.38
2023-02-23T17:09:33.802Z,53.44
2023-02-23T17:14:35.614Z,54.03
2023-02-23T17:19:37.440Z,53.83
2023-02-23T17:24:40.250Z,53.87
2023-02-23T17:29:42.567Z,53.64
2023-02-23T17:34:44.334Z,53.79
2023-02-23T17:39:49.726Z,54.26
2023-02-23T17:44:53.412Z,54.02
2023-02-23T17:49:55.220Z,54.32
2023-02-23T17:54:58.378Z,54.27
2023-02-23T18:00:01.150Z,54.29
2023-02-23T18:05:02.914Z,54.10
2023-02-23T18:10:06.250Z,55.05
2023-02-23T18:15:08.372Z,55.55
2023-02-23T18:20:16.242Z,55.36
2023-02-23T18:25:27.925Z,55.04
2023-02-23T18:30:29.827Z,55.08
2023-02-23T18:35:37.807Z,55.12
2023-02-23T18:40:40.335Z,55.16
2023-02-23T18:45:43.338Z,55.90
2023-02-23T18:50:45.094Z,56.38
2023-02-23T18:55:47.337Z,56.31
2023-02-23T19:00:49.116Z,55.65
2023-02-23T19:05:53.312Z,55.94
2023-02-23T19:10:55.171Z,55.93
2023-02-23T19:15:58.878Z,56.37
2023-02-23T19:21:00.634Z,56.23
2023-02-23T19:26:03.525Z,56.29
2023-02-23T19:31:11.728Z,56.63
2023-02-23T19:36:19.266Z,57.29
2023-02-23T19:41:21.706Z,57.63
2023-02-23T19:46:25.661Z,57.85
2023-02-23T19:51:28.063Z,58.12
2023-02-23T19:56:30.329Z,58.17
2023-02-23T20:01:32.381Z,58.47
2023-02-23T20:06:39.523Z,58.69
2023-02-23T20:11:42.660Z,58.66
2023-02-23T20:16:44.632Z,58.40
2023-02-23T20:21:46.503Z,58.61
2023-02-23T20:26:48.747Z,58.49
2023-02-23T20:31:51.979Z,58.08
2023-02-23T20:36:55.732Z,58.36
2023-02-23T20:41:57.486Z,58.28
2023-02-23T20:47:00.823Z,58.60
2023-02-23T20:52:03.347Z,58.46
2023-02-23T20:57:08.266Z,58.60
2023-02-23T21:02:13.778Z,58.78
2023-02-23T21:07:15.816Z,58.63
2023-02-23T21:12:17.558Z,58.80
2023-02-23T21:17:19.395Z,59.23
2023-02-23T21:22:21.221Z,59.37
2023-02-23T21:27:23.948Z,59.37
2023-02-23T21:32:27.160Z,59.21
2023-02-23T21:37:29.007Z,59.02
2023-02-23T21:42:31.097Z,58.87
2023-02-23T21:47:37.374Z,58.64
2023-02-23T21:52:43.384Z,58.32
2023-02-23T21:57:45.212Z,58.04
2023-02-23T22:02:47.126Z,58.47
2023-02-23T22:07:51.010Z,58.55
2023-02-23T22:12:56.375Z,58.50
2023-02-23T22:17:58.209Z,58.19
2023-02-23T22:22:59.965Z,58.14
2023-02-23T22:28:02.022Z,58.04
2023-02-23T22:33:03.889Z,58.13
2023-02-23T22:38:05.787Z,58.38
2023-02-23T22:43:08.929Z,57.93
2023-02-23T22:48:10.727Z,58.11
2023-02-23T22:53:12.470Z,58.12
2023-02-23T22:58:15.269Z,58.15
2023-02-23T23:03:17.032Z,58.30
2023-02-23T23:08:18.833Z,58.51
2023-02-23T23:13:20.600Z,58.96
2023-02-23T23:18:24.633Z,58.97
2023-02-23T23:23:26.536Z,59.10
2023-02-23T23:28:28.688Z,59.45
2023-02-23T23:33:30.792Z,59.20
2023-02-23T23:38:34.132Z,59.34
2023-02-23T23:43:37.331Z,59.14
2023-02-23T23:48:39.411Z,59.51
2023-02-23T23:53:42.421Z,59.96
2023-02-23T23:58:44.640Z,59.98
